Latest Weather Observations for Charles Point

IDD60901

Issued at 9:41 pm CST Sunday 22 January 2017 (issued every 10 minutes, with the page automatically refreshed every 10 minutes)

About weather observations | Map of Darwin area stations | Latest observations for Darwin area | Other Formats
Station Details ID: 014031 Name: CHARLES POINT Lat: -12.39 Lon: 130.63 Height: 14.0 m
Data from the previous 72 hours. | See also: Recent months for locations in Northern Territory
Date/Time
CST
Temp
°C
App
Temp
°C
Dew
Point
°C
Rel
Hum
%
Delta-T
°C
Wind Press
QNH
hPa
Press
MSL
hPa
Rain since
9am
mm
Dir  Spd
km/h
Gust
km/h
Spd
kts
Gust
kts
22/09:30pm 28.3 32.0 25.1 83 2.2 W 15 26 8 14 1008.5 1008.3 4.4
22/09:00pm 27.4 32.9 25.6 90 1.3 W 7 19 4 10 1008.4 1008.2 4.4
22/08:30pm 26.1 30.5 23.8 87 1.6 WSW 7 15 4 8 1008.1 1007.9 3.8
22/08:00pm 26.8 32.4 25.4 92 1.0 SSW 6 11 3 6 1007.9 1007.7 3.0
22/07:30pm 26.5 31.2 24.9 91 1.1 SW 9 15 5 8 1007.6 1007.4 2.6
22/07:00pm 26.8 32.4 24.8 89 1.4 SW 4 7 2 4 1007.2 1007.0 0.2
22/06:30pm 26.3 29.9 23.0 82 2.2 WSW 9 24 5 13 1006.9 1006.7 0.2
22/06:00pm 29.4 34.3 25.2 78 3.0 W 9 15 5 8 1006.6 1006.4 0.0
22/05:30pm 29.2 33.4 25.4 80 2.7 W 13 22 7 12 1006.2 1006.0 0.0
22/05:00pm 29.3 33.1 25.3 79 2.8 W 15 24 8 13 1006.0 1005.8 0.0
22/04:30pm 29.0 31.8 25.0 79 2.8 W 19 33 10 18 1005.6 1005.4 0.0
22/04:00pm 30.4 34.1 25.2 74 3.7 W 15 24 8 13 1005.8 1005.6 0.0
22/03:30pm 31.2 34.2 25.5 71 4.0 W 20 35 11 19 1005.8 1005.6 0.0
22/03:00pm 30.6 34.3 25.2 73 3.8 W 15 28 8 15 1005.8 1005.6 0.0
22/02:30pm 31.2 34.6 25.8 73 3.8 W 19 30 10 16 1006.3 1006.1 0.0
22/02:00pm 31.3 35.2 25.4 71 4.2 W 15 26 8 14 1006.7 1006.5 0.0
22/01:30pm 31.5 35.7 25.4 70 4.3 W 13 24 7 13 1007.2 1007.0 0.0
22/01:00pm 30.9 34.4 24.8 70 4.3 W 15 28 8 15 1007.9 1007.7 0.0
22/12:30pm 31.4 35.3 24.8 68 4.6 W 13 26 7 14 1008.3 1008.1 0.0
22/12:00pm 30.7 34.7 25.1 72 4.0 W 13 24 7 13 1008.5 1008.3 0.0
22/11:30am 31.0 35.0 25.1 71 4.2 WSW 13 28 7 15 1008.7 1008.5 0.0
22/11:00am 31.3 35.7 25.6 71 4.0 W 13 24 7 13 1008.9 1008.7 0.0
22/10:30am 30.4 35.1 25.5 75 3.5 W 11 22 6 12 1009.2 1009.1 0.0
22/10:00am 30.2 34.4 24.8 73 3.8 WSW 11 22 6 12 1009.3 1009.2 0.0
22/09:30am 30.3 34.1 24.7 72 3.9 W 13 20 7 11 1009.5 1009.4 0.0
22/09:00am 30.2 35.3 25.0 73 3.7 W 7 13 4 7 1009.7 1009.6 1.2
22/08:30am 29.5 34.2 25.0 77 3.2 W 9 17 5 9 1009.6 1009.5 1.0
22/08:00am 29.0 34.1 25.0 79 2.8 W 7 13 4 7 1009.5 1009.4 1.0
22/07:30am 28.7 33.1 24.5 78 2.9 W 9 19 5 10 1009.2 1009.1 1.0
22/07:00am 28.6 33.0 24.4 78 2.9 W 9 19 5 10 1009.1 1009.0 1.0
22/06:30am 28.4 32.4 24.4 79 2.8 W 11 19 6 10 1008.8 1008.6 1.0
22/06:00am 28.3 32.4 23.9 77 3.0 W 9 15 5 8 1008.5 1008.3 1.0
22/05:30am 28.4 32.8 24.4 79 2.8 W 9 19 5 10 1008.4 1008.2 1.0
22/05:00am 28.3 32.4 23.9 77 3.0 W 9 20 5 11 1008.3 1008.1 1.0
22/04:30am 28.2 32.5 24.2 79 2.8 W 9 19 5 10 1008.2 1008.0 1.0
22/04:00am 28.4 32.0 23.8 76 3.2 W 11 22 6 12 1008.4 1008.2 1.0
22/03:30am 28.3 32.1 24.1 78 2.9 W 11 22 6 12 1008.5 1008.3 1.0
22/03:00am 28.3 32.0 24.5 80 2.6 W 13 24 7 13 1008.7 1008.5 1.0
22/02:30am 27.8 32.9 25.6 88 1.6 W 9 20 5 11 1008.8 1008.6 1.0
22/02:00am 27.3 32.4 24.7 86 1.8 W 6 9 3 5 1008.9 1008.7 1.0
22/01:30am 26.6 32.1 24.6 89 1.4 WSW 4 6 2 3 1009.1 1009.0 1.0
22/01:00am 26.5 32.3 25.1 92 1.0 SW 4 7 2 4 1009.4 1009.3 1.0
22/12:30am 26.3 31.9 24.9 92 1.0 SSW 4 6 2 3 1009.7 1009.6 1.0
22/12:00am 26.3 31.8 24.7 91 1.1 S 4 7 2 4 1010.1 1010.0 1.0
 
Date/Time
CST
Temp
°C
App
Temp
°C
Dew
Point
°C
Rel
Hum
%
Delta-T
°C
Wind Press
QNH
hPa
Press
MSL
hPa
Rain since
9am
mm
Dir  Spd
km/h
Gust
km/h
Spd
kts
Gust
kts
21/11:30pm 26.2 31.0 24.2 89 1.4 S 6 7 3 4 1010.3 1010.2 1.0
21/11:00pm 26.5 31.3 24.2 87 1.6 S 6 9 3 5 1010.4 1010.3 1.0
21/10:30pm 27.4 32.1 24.3 83 2.1 SSW 7 11 4 6 1010.5 1010.4 1.0
21/10:00pm 28.4 32.8 24.4 79 2.8 W 9 15 5 8 1010.2 1010.1 1.0
21/09:30pm 28.1 32.6 23.9 78 2.9 W 7 17 4 9 1010.2 1010.1 1.0
21/09:00pm 28.1 32.0 24.3 80 2.6 W 11 19 6 10 1009.8 1009.7 1.0
21/08:30pm 26.9 32.0 24.9 89 1.4 WNW 7 17 4 9 1009.5 1009.4 1.0
21/08:00pm 26.7 33.2 25.1 91 1.1 CALM 0 0 0 0 1009.3 1009.2 1.0
21/07:30pm 26.8 32.8 24.8 89 1.4 WSW 2 4 1 2 1009.0 1008.9 1.0
21/07:00pm 27.2 32.8 24.8 87 1.7 WSW 4 6 2 3 1008.5 1008.3 1.0
21/06:30pm 27.6 32.4 24.2 82 2.4 WSW 6 11 3 6 1008.3 1008.1 1.0
21/06:00pm 28.6 32.7 24.6 79 2.8 WNW 11 17 6 9 1007.9 1007.7 1.0
21/05:30pm 29.1 33.8 24.9 78 2.9 WNW 9 17 5 9 1007.4 1007.2 1.0
21/05:00pm 29.9 34.3 25.0 75 3.4 WNW 11 17 6 9 1007.3 1007.1 1.0
21/04:30pm 30.1 34.4 24.9 73 3.7 WNW 11 15 6 8 1007.3 1007.1 1.0
21/04:00pm 30.1 34.2 25.2 75 3.5 WNW 13 19 7 10 1007.6 1007.4 1.0
21/03:30pm 29.9 34.8 25.2 76 3.3 W 9 13 5 7 1007.8 1007.6 1.0
21/03:00pm 29.5 33.7 24.8 76 3.3 WNW 11 19 6 10 1008.0 1007.8 1.0
21/02:30pm 30.3 34.8 25.8 77 3.2 WNW 13 19 7 10 1008.1 1007.9 1.0
21/02:00pm 29.6 33.8 24.7 75 3.4 WNW 11 17 6 9 1008.4 1008.2 1.0
21/01:30pm 29.6 34.2 24.7 75 3.4 W 9 13 5 7 1008.7 1008.5 1.0
21/01:00pm 28.6 33.9 25.0 81 2.5 SW 6 11 3 6 1009.0 1008.9 1.0
21/12:30pm 27.0 32.6 24.8 88 1.5 SSW 4 6 2 3 1009.4 1009.3 0.8
21/12:00pm 26.0 31.5 24.6 92 1.0 SSW 4 9 2 5 1009.9 1009.8 0.8
21/11:30am 25.6 30.5 24.4 93 0.8 S 6 11 3 6 1010.3 1010.2 0.8
21/11:00am 25.2 30.0 24.2 94 0.7 S 6 9 3 5 1010.8 1010.7 0.8
21/10:30am 24.7 29.1 23.8 95 0.6 S 7 11 4 6 1011.0 1010.9 0.8
21/10:00am 24.5 28.8 23.6 95 0.6 S 7 13 4 7 1011.2 1011.1 0.8
21/09:30am 24.3 28.7 23.4 95 0.6 SSE 6 7 3 4 1011.4 1011.3 0.6
21/09:00am 24.1 28.3 23.1 94 0.7 SE 6 9 3 5 1011.3 1011.2 11.8
21/08:30am 24.2 28.1 23.0 93 0.8 SSE 7 11 4 6 1011.3 1011.2 7.8
21/08:00am 24.4 28.1 23.2 93 0.8 SSE 9 13 5 7 1010.9 1010.8 6.8
21/07:30am 24.7 28.8 23.3 92 1.0 SSE 7 9 4 5 1010.5 1010.4 6.6
21/07:00am 25.3 30.4 24.1 93 0.8 SW 4 7 2 4 1010.0 1009.9 6.4
21/06:30am 25.4 29.0 23.8 91 1.1 SW 11 20 6 11 1009.8 1009.7 6.2
21/06:00am 25.9 30.3 23.4 86 1.7 SSW 6 9 3 5 1009.0 1008.9 5.2
21/05:30am 26.1 30.3 23.2 84 2.0 WSW 6 11 3 6 1008.5 1008.3 5.2
21/05:00am 27.2 32.1 24.7 86 1.7 WNW 7 13 4 7 1008.3 1008.1 5.2
21/04:30am 27.9 31.8 24.9 84 2.1 NW 13 17 7 9 1007.9 1007.7 4.8
21/04:00am 27.9 32.3 25.1 85 2.0 NW 11 20 6 11 1008.0 1007.8 4.8
21/03:30am 27.6 31.5 24.2 82 2.4 NW 11 22 6 12 1008.3 1008.1 4.8
21/03:00am 27.4 30.8 24.1 82 2.3 NW 13 17 7 9 1008.1 1007.9 4.8
21/02:30am 28.1 32.4 24.9 83 2.2 NW 11 17 6 9 1008.4 1008.2 4.6
21/02:00am 28.1 32.8 24.9 83 2.2 NW 9 15 5 8 1008.5 1008.3 4.6
21/01:30am 28.1 32.8 24.9 83 2.2 NNW 9 15 5 8 1008.6 1008.4 4.6
21/01:00am 28.0 32.4 25.0 84 2.1 NNW 11 17 6 9 1009.0 1008.9 4.6
21/12:30am 28.3 32.3 25.1 83 2.2 NNW 13 19 7 10 1009.3 1009.2 4.6
21/12:00am 28.4 32.1 24.6 80 2.7 NW 13 19 7 10 1009.6 1009.5 4.6
 
Date/Time
CST
Temp
°C
App
Temp
°C
Dew
Point
°C
Rel
Hum
%
Delta-T
°C
Wind Press
QNH
hPa
Press
MSL
hPa
Rain since
9am
mm
Dir  Spd
km/h
Gust
km/h
Spd
kts
Gust
kts
20/11:30pm 28.6 31.3 24.2 77 3.1 WNW 17 20 9 11 1009.7 1009.6 4.6
20/11:00pm 28.6 31.4 23.7 75 3.4 WNW 15 20 8 11 1009.7 1009.6 4.6
20/10:30pm 28.6 31.3 23.5 74 3.5 WNW 15 19 8 10 1009.4 1009.3 4.6
20/10:00pm 28.4 31.7 23.8 76 3.2 WNW 13 20 7 11 1009.3 1009.2 4.6
20/09:30pm 28.4 31.1 23.5 75 3.4 WNW 15 22 8 12 1009.1 1009.0 4.6
20/09:00pm 28.1 31.7 23.7 77 3.0 WNW 11 19 6 10 1008.7 1008.5 4.6
20/08:30pm 28.1 30.9 23.0 74 3.5 W 13 22 7 12 1008.2 1008.0 4.6
20/08:00pm 28.1 31.2 23.5 76 3.2 W 13 22 7 12 1008.0 1007.8 4.6
20/07:30pm 27.9 31.6 23.3 76 3.2 W 9 19 5 10 1007.8 1007.6 4.6
20/07:00pm 28.1 31.2 23.5 76 3.2 W 13 20 7 11 1007.7 1007.5 4.6
20/06:30pm 28.1 32.1 23.7 77 3.0 W 9 15 5 8 1007.4 1007.2 4.6
20/06:00pm 28.3 32.8 23.9 77 3.0 W 7 15 4 8 1007.2 1007.0 4.6
20/05:30pm 28.5 32.4 23.6 75 3.4 W 9 17 5 9 1007.2 1007.0 4.6
20/05:00pm 28.5 31.6 23.6 75 3.4 W 13 24 7 13 1007.1 1006.9 4.6
20/04:30pm 28.6 33.0 25.0 81 2.5 W 11 19 6 10 1007.1 1006.9 4.6
20/04:00pm 28.3 32.1 24.1 78 2.9 W 11 19 6 10 1007.0 1006.8 4.6
20/03:30pm 28.6 33.7 25.0 81 2.5 W 7 13 4 7 1007.1 1006.9 4.6
20/03:00pm 27.6 31.6 24.4 83 2.2 W 11 19 6 10 1007.2 1007.0 4.6
20/02:30pm 27.2 31.3 24.5 85 1.9 W 11 20 6 11 1007.5 1007.3 4.6
20/02:00pm 26.5 29.6 24.2 87 1.6 W 15 24 8 13 1008.2 1008.0 4.6
20/01:30pm 26.1 29.5 24.1 89 1.4 W 13 22 7 12 1008.6 1008.4 4.6
20/01:00pm 25.6 27.7 23.8 90 1.2 W 19 32 10 17 1009.0 1008.9 4.6
20/12:30pm 25.9 28.7 24.3 91 1.1 W 17 33 9 18 1009.3 1009.2 3.8
20/12:00pm 25.9 31.3 24.5 92 1.0 W 4 9 2 5 1009.5 1009.4 3.4
20/11:30am 25.8 31.1 24.4 92 1.0 WSW 4 6 2 3 1009.4 1009.3 2.8
20/11:00am 25.7 30.8 24.1 91 1.1 WSW 4 9 2 5 1009.8 1009.7 2.2
20/10:30am 25.8 30.3 23.7 88 1.4 WSW 6 9 3 5 1010.0 1009.9 1.2
20/10:00am 26.6 31.1 23.7 84 2.0 W 6 9 3 5 1009.9 1009.8 0.0
20/09:30am 26.9 29.8 23.8 83 2.1 WNW 15 19 8 10 1010.0 1009.9 0.0
20/09:00am 26.3 30.6 24.2 88 1.4 NW 9 15 5 8 1010.0 1009.9 15.8
20/08:30am 25.8 29.9 24.0 90 1.2 NW 9 13 5 7 1009.5 1009.4 15.6
20/08:00am 25.0 30.1 24.1 95 0.6 WNW 4 6 2 3 1009.2 1009.1 15.4
20/07:30am 24.9 30.4 24.0 95 0.6 W 2 4 1 2 1009.0 1008.9 15.4
20/07:00am 24.9 30.7 23.9 94 0.7 CALM 0 0 0 0 1008.6 1008.4 15.4
20/06:30am 24.9 29.9 23.9 94 0.7 W 4 4 2 2 1008.2 1008.0 15.2
20/06:00am 24.9 30.7 23.9 94 0.7 CALM 0 0 0 0 1008.0 1007.8 14.4
20/05:30am 24.7 30.4 23.7 94 0.7 CALM 0 0 0 0 1007.9 1007.7 13.8
20/05:00am 24.6 30.1 23.4 93 0.8 CALM 0 0 0 0 1007.1 1006.9 13.6
20/04:30am 24.7 29.8 23.3 92 1.0 NW 2 7 1 4 1007.7 1007.5 12.6
20/04:00am 24.9 29.2 23.7 93 0.8 W 7 11 4 6 1007.8 1007.6 10.8
20/03:30am 25.2 27.5 23.4 90 1.2 WNW 17 24 9 13 1008.1 1007.9 6.6
20/03:10am 27.0 29.9 24.5 86 1.7 WNW 17 39 9 21 1007.4 1007.2 1.0
20/03:00am 28.0 32.7 25.0 84 2.1 WNW 9 15 5 8 1007.5 1007.3 1.0
20/02:30am 28.4 32.5 24.6 80 2.7 NW 11 17 6 9 1007.7 1007.5 1.0
20/02:00am 28.3 32.1 24.7 81 2.5 NW 13 20 7 11 1007.8 1007.6 1.0
20/01:30am 27.3 32.4 24.6 85 1.9 NNW 6 11 3 6 1008.0 1007.8 1.0
20/01:00am 27.9 32.5 24.1 80 2.6 N 7 9 4 5 1008.1 1007.9 1.0
20/12:30am 27.0 28.9 23.5 81 2.4 N 19 22 10 12 1008.3 1008.1 1.0
20/12:00am 28.1 29.2 24.3 80 2.6 NNW 26 37 14 20 1008.6 1008.4 0.2
 
Date/Time
CST
Temp
°C
App
Temp
°C
Dew
Point
°C
Rel
Hum
%
Delta-T
°C
Wind Press
QNH
hPa
Press
MSL
hPa
Rain since
9am
mm
Dir  Spd
km/h
Gust
km/h
Spd
kts
Gust
kts
19/11:53pm 28.6 32.1 24.8 80 2.7 NNW 15 37 8 20 1008.6 1008.4 0.2
19/11:30pm 28.6 33.3 23.9 75 3.3 NNW 6 9 3 5 1009.0 1008.9 0.2
19/11:00pm 28.1 30.5 23.7 77 3.0 NW 17 22 9 12 1008.9 1008.7 0.2
19/10:30pm 29.0 32.9 24.3 76 3.3 NNW 11 17 6 9 1008.9 1008.7 0.2
19/10:00pm 29.0 33.1 24.6 77 3.1 NW 11 15 6 8 1008.8 1008.6 0.2

Latest Capital City Observations: Canberra | Sydney | Melbourne | Brisbane | Adelaide | Perth | Hobart | Darwin

Other Formats:

Comma delimited format used in spreadsheet applications
http://www.bom.gov.au/fwo/IDD60901/IDD60901.99510.axf

JavaScript Object Notation format (JSON) in row-major order
http://www.bom.gov.au/fwo/IDD60901/IDD60901.99510.json